EZZ weather

Cameron Memorial Airport
Cameron, Missouri, United States

Public forecast

Using degrees Fahrenheit for public forecast. Weather courtesy of forecast.io.

METAR (pilot weather report)

Closest report is Midwest National Air Center Airport, 23.8 nm (44.0 km) S. Retrieved 2019/08/25 05:35 UTC (8 minutes ago):

KGPH 250535Z AUTO 00000KT 10SM OVC042 21/16 A3004 RMK AO2

TAF (pilot weather forecast)

Forecast is more than 12 hours old.

Closest forecast is Rosecrans Memorial Airport, 29.4 nm (54.4 km) W. Retrieved 2019/08/24 00:24 UTC (1 day ago):

TAF KSTJ 242323Z 2500/2524 11010KT P6SM OVC035 FM250500 12009KT P6SM OVC025 FM251200 12009KT 5SM BR OVC015 FM251500 12008KT 5SM -DZ BR OVC007